Low Head, Tasmania

9:42 PM AEST on September 18, 2014 (GMT +1000)
Deviot | Change Station
CLOSE
Current Station
Personal Weather Station
Location: Deviot, TASMANIA
Elevation: 56 ft
Nearby Weather Stations

Elev 56 ft 41.23 °S, 146.93 °E | Updated 1 second ago

Clear
Clear
50.5 °F
Feels Like 50.5 °F
N
5.4
Wind Variable Wind from West
Gusts 9.8 mph

Today
High -- | Low -- °F
--% Chance of Precip.
Yesterday
High -- | Low -- °F
Precip. -- in
6:09 AM 6:05 PM
Waning Crescent, 28% visible
Pressure 30.04 in
Visibility 6.2 miles
Clouds
Dew Point 38 °F
Humidity 63%
Rainfall 0.00 in
Snow Depth Not available.
UV Not available.
Pollen Not available.
Air Quality Not available.
Flu Activity Not available.
METAR YMLT 181130Z AUTO 35007KT 9999 // NCD 06/01 Q1017

More Conditions Fewer Conditions

Pressure 30.04 in
Visibility 6.2 miles
Clouds
Dew Point 38 °F
Humidity 63%
Rainfall 0.00 in
Snow Depth Not available.
UV Not available.
Pollen Not available.
Air Quality Not available.
Flu Activity Not available.
METAR YMLT 181130Z AUTO 35007KT 9999 // NCD 06/01 Q1017

More Conditions Fewer Conditions

10-Day Weather Forecast

Almanac

Astronomy

Sep. 18, 2014 Rise Set
Actual Time 6:09 AM AEST 6:05 PM AEST
Civil Twilight 5:42 AM AEST 6:32 PM AEST
Nautical Twilight 5:10 AM AEST 7:04 PM AEST
Astronomical Twilight 4:38 AM AEST 7:36 PM AEST
Moon 2:24 AM AEST 12:36 PM AEST
Length of Visible Light 12h 49m
Length of Day
11h 55m
Tomorrow will be 2m 43s longer.
Waning Crescent, 28% of the Moon is Illuminated
Today
Waning Crescent
Sep 24
New
Oct 1
First Quarter
Oct 8
Full
Oct 15
Last Quarter

Yesterday's Extremes

Country Highs Country Lows

Community

WunderPhotos

Upload Photos

1,754,324 photos uploaded!

Nearby

Snow Depth

Not available.

Earthquake Activity

City Distance Mag. Time & Date
No recent earthquake activity has been reported nearby.
Minimum magnitude displayed is 2.5.

Coastal Water Temperatures

Place Temperature
No Stations Reporting

Nearby Weather Stations